createdAt,value
2023-05-04T00:00:08.724Z,10.02
2023-05-04T00:10:11.031Z,9.40
2023-05-04T00:20:21.915Z,9.30
2023-05-04T00:30:31.016Z,10.60
2023-05-04T00:40:52.077Z,10.95
2023-05-04T00:50:54.247Z,9.90
2023-05-04T01:00:59.157Z,11.57
2023-05-04T01:11:11.957Z,10.75
2023-05-04T01:21:13.952Z,10.18
2023-05-04T01:31:17.950Z,12.80
2023-05-04T01:41:21.901Z,12.00
2023-05-04T01:51:25.025Z,13.32
2023-05-04T02:01:33.284Z,11.77
2023-05-04T02:11:35.241Z,11.63
2023-05-04T02:21:37.206Z,11.85
2023-05-04T02:31:39.206Z,13.45
2023-05-04T02:41:41.201Z,12.55
2023-05-04T02:51:44.256Z,14.05
2023-05-04T03:01:53.276Z,14.00
2023-05-04T03:11:55.643Z,14.77
2023-05-04T03:22:03.697Z,15.52
2023-05-04T03:33:11.390Z,16.17
2023-05-04T03:43:13.440Z,15.50
2023-05-04T03:53:22.254Z,17.40
2023-05-04T04:03:24.359Z,17.63
2023-05-04T04:13:28.169Z,14.93
2023-05-04T04:23:43.273Z,18.27
2023-05-04T04:34:02.469Z,18.25
2023-05-04T04:44:30.041Z,20.27
2023-05-04T04:54:32.073Z,19.25
2023-05-04T05:04:41.591Z,17.42
2023-05-04T05:14:44.677Z,17.35
2023-05-04T05:24:46.825Z,16.67
2023-05-04T05:34:50.979Z,17.83
2023-05-04T05:44:54.613Z,17.48
2023-05-04T05:54:56.705Z,17.38
2023-05-04T06:04:58.747Z,16.75
2023-05-04T06:15:00.900Z,16.67
2023-05-04T06:25:05.882Z,12.18
2023-05-04T06:35:11.949Z,12.30
2023-05-04T06:45:14.103Z,13.27
2023-05-04T06:55:22.171Z,13.10
2023-05-04T07:05:26.318Z,11.25
2023-05-04T07:15:28.388Z,9.73
2023-05-04T07:25:30.614Z,9.70
2023-05-04T07:35:32.667Z,7.63
2023-05-04T07:45:34.808Z,7.00
2023-05-04T07:55:37.119Z,5.10
2023-05-04T08:05:39.100Z,2.47
2023-05-04T08:15:41.613Z,2.38
2023-05-04T08:25:44.634Z,3.33
2023-05-04T08:35:50.023Z,2.38
2023-05-04T08:45:54.098Z,1.40
2023-05-04T08:56:04.259Z,2.10
2023-05-04T09:06:08.782Z,3.13
2023-05-04T09:16:17.239Z,3.25
2023-05-04T09:26:31.518Z,2.60
2023-05-04T09:36:33.454Z,2.83
2023-05-04T09:46:36.642Z,3.35
2023-05-04T09:56:48.950Z,3.25
2023-05-04T10:06:51.068Z,2.03
2023-05-04T10:17:18.221Z,2.70
2023-05-04T10:27:53.379Z,2.65
2023-05-04T10:37:56.798Z,2.90
2023-05-04T10:47:59.019Z,2.85
2023-05-04T10:58:02.157Z,2.88
2023-05-04T11:08:15.950Z,2.65
2023-05-04T11:18:32.766Z,3.45
2023-05-04T11:28:38.709Z,2.85
2023-05-04T11:38:44.157Z,3.40
2023-05-04T11:48:46.457Z,2.97
2023-05-04T11:58:48.472Z,3.08
2023-05-04T12:08:50.621Z,2.70
2023-05-04T12:19:03.773Z,3.20
2023-05-04T12:29:08.945Z,3.30
2023-05-04T12:39:11.015Z,2.80
2023-05-04T12:49:15.088Z,2.92
2023-05-04T12:59:17.218Z,3.50
2023-05-04T13:09:21.091Z,3.17
2023-05-04T13:19:23.229Z,3.15
2023-05-04T13:29:27.259Z,3.58
2023-05-04T13:39:29.529Z,3.38
2023-05-04T13:49:34.727Z,3.28
2023-05-04T13:59:36.814Z,3.22
2023-05-04T14:09:39.276Z,3.40
2023-05-04T14:19:41.216Z,2.67
2023-05-04T14:29:47.182Z,3.30
2023-05-04T14:49:53.149Z,3.05
2023-05-04T14:59:55.318Z,2.58
2023-05-04T15:09:57.510Z,3.13
2023-05-04T15:20:04.412Z,3.10
2023-05-04T15:30:09.241Z,3.53
2023-05-04T15:40:12.972Z,3.28
2023-05-04T15:50:16.061Z,3.40
2023-05-04T16:00:19.472Z,3.33
2023-05-04T16:10:22.450Z,2.90
2023-05-04T16:20:24.602Z,3.53
2023-05-04T16:30:34.403Z,3.13
2023-05-04T16:40:38.606Z,3.20
2023-05-04T16:50:40.678Z,3.40
2023-05-04T17:00:43.080Z,3.05
2023-05-04T17:10:45.420Z,3.20
2023-05-04T17:20:47.339Z,3.25
2023-05-04T17:30:52.968Z,2.80
2023-05-04T17:40:54.947Z,3.13
2023-05-04T17:50:57.738Z,4.07
2023-05-04T18:00:59.793Z,3.88
2023-05-04T18:11:04.030Z,2.83
2023-05-04T18:21:06.020Z,4.53
2023-05-04T18:31:08.340Z,3.63
2023-05-04T18:41:12.455Z,3.72
2023-05-04T18:51:14.915Z,3.35
2023-05-04T19:01:16.974Z,4.53
2023-05-04T19:11:19.110Z,3.95
2023-05-04T19:21:22.857Z,3.35
2023-05-04T19:31:24.920Z,2.75
2023-05-04T19:41:28.966Z,3.00
2023-05-04T19:51:30.965Z,3.08
2023-05-04T20:01:33.913Z,3.40
2023-05-04T20:11:36.385Z,8.25
2023-05-04T20:21:38.459Z,5.28
2023-05-04T20:31:47.303Z,12.23
2023-05-04T20:42:08.788Z,10.13
2023-05-04T20:52:11.780Z,6.00
2023-05-04T21:02:17.878Z,5.90
2023-05-04T21:12:19.719Z,4.97
2023-05-04T21:22:21.858Z,5.55
2023-05-04T21:32:34.974Z,5.13
2023-05-04T21:42:36.950Z,6.07
2023-05-04T21:52:38.819Z,6.35
2023-05-04T22:02:59.777Z,5.60
2023-05-04T22:13:01.814Z,5.22
2023-05-04T22:23:04.666Z,5.95
2023-05-04T22:33:06.625Z,6.22
2023-05-04T22:43:08.783Z,6.60
2023-05-04T22:53:11.111Z,6.07
2023-05-04T23:03:57.970Z,6.10
2023-05-04T23:14:03.055Z,7.95
2023-05-04T23:24:05.209Z,7.70
2023-05-04T23:34:07.117Z,7.30
2023-05-04T23:44:08.990Z,9.48
2023-05-04T23:54:10.913Z,8.07
